LIEO/OLB METAR and TAF weather

Enter ICAO airport designator
Station Type Date Time Source
LIEO METAR 2021/09/20 04:20 UTC NOAA

LIEO 200420Z 24014KT CAVOK 20/15 Q1014


Station Type Date Time Source
LIEO Decoded METAR 2021/09/20 04:20 UTC NOAA

Olbia / Costa Smeralda, Italy (LIEO) 40-54N 009-31E 13M
Sep 20, 2021 - 12:20 AM EDT / 2021.09.20 0420 UTC
Wind: from the WSW (240 degrees) at 16 MPH (14 KT):0
Visibility: greater than 7 mile(s):0
Temperature: 68 F (20 C)
Dew Point: 59 F (15 C)
Relative Humidity: 72%
Pressure (altimeter): 29.94 in. Hg (1014 hPa)
ob: LIEO 200420Z 24014KT CAVOK 20/15 Q1014
cycle: 4

Station Type Date Time Source
LIEO TAF 2021/09/19 18:21 UTC NOAA

TAF LIEO 191700Z 1918/2018 28016KT 9999 SCT040
TEMPO 1918/1921 28018G28KT

Example: see airport list